createdAt,value
2022-10-19T00:01:36.616Z,0.90
2022-10-19T00:04:44.911Z,1.17
2022-10-19T00:07:54.483Z,1.90
2022-10-19T00:11:01.888Z,1.30
2022-10-19T00:14:09.839Z,3.30
2022-10-19T00:17:15.000Z,1.42
2022-10-19T00:20:19.933Z,4.07
2022-10-19T00:23:25.090Z,1.08
2022-10-19T00:26:30.669Z,1.55
2022-10-19T00:29:40.643Z,1.13
2022-10-19T00:32:46.685Z,0.80
2022-10-19T00:35:53.357Z,0.90
2022-10-19T00:38:59.184Z,1.20
2022-10-19T00:42:05.283Z,4.10
2022-10-19T00:45:18.266Z,4.70
2022-10-19T00:48:34.920Z,6.22
2022-10-19T00:51:54.000Z,8.90
2022-10-19T00:54:59.578Z,8.10
2022-10-19T00:58:05.610Z,7.93
2022-10-19T01:01:16.193Z,12.70
2022-10-19T01:04:22.880Z,11.18
2022-10-19T01:07:28.339Z,11.18
2022-10-19T01:10:46.654Z,10.05
2022-10-19T01:14:14.425Z,11.07
2022-10-19T01:17:41.957Z,10.35
2022-10-19T01:21:19.232Z,7.57
2022-10-19T01:25:10.071Z,16.23
2022-10-19T01:28:42.287Z,11.13
2022-10-19T01:31:53.110Z,8.73
2022-10-19T01:35:30.988Z,12.73
2022-10-19T01:38:52.748Z,17.25
2022-10-19T01:42:07.880Z,12.85
2022-10-19T01:45:26.058Z,15.50
2022-10-19T01:48:35.964Z,13.05
2022-10-19T01:51:47.245Z,13.10
2022-10-19T01:54:57.538Z,12.50
2022-10-19T01:58:09.547Z,15.05
2022-10-19T02:01:17.657Z,13.40
2022-10-19T02:04:27.379Z,17.05
2022-10-19T02:07:33.267Z,13.70
2022-10-19T02:10:40.660Z,12.57
2022-10-19T02:13:47.122Z,12.32
2022-10-19T02:17:07.539Z,13.75
2022-10-19T02:20:13.223Z,12.70
2022-10-19T02:23:22.513Z,10.07
2022-10-19T02:26:27.561Z,11.15
2022-10-19T02:29:34.062Z,10.38
2022-10-19T02:32:39.218Z,8.25
2022-10-19T02:35:44.806Z,7.45
2022-10-19T02:38:49.770Z,8.35
2022-10-19T02:42:34.701Z,7.53
2022-10-19T02:45:56.635Z,7.35
2022-10-19T02:49:03.300Z,6.60
2022-10-19T02:52:10.826Z,8.65
2022-10-19T02:55:16.367Z,6.55
2022-10-19T02:58:22.540Z,6.60
2022-10-19T03:01:28.098Z,6.70
2022-10-19T03:04:33.996Z,6.18
2022-10-19T03:07:39.332Z,9.52
2022-10-19T03:10:44.454Z,6.50
2022-10-19T03:13:49.260Z,6.05
2022-10-19T03:16:56.146Z,7.70
2022-10-19T03:20:01.750Z,6.38
2022-10-19T03:23:06.576Z,6.70
2022-10-19T03:26:16.366Z,8.95
2022-10-19T03:29:21.511Z,8.82
2022-10-19T03:32:26.913Z,7.82
2022-10-19T03:35:32.236Z,8.80
2022-10-19T03:38:37.466Z,11.63
2022-10-19T03:41:42.552Z,11.38
2022-10-19T03:44:47.819Z,10.60
2022-10-19T03:47:52.739Z,11.32
2022-10-19T03:51:00.764Z,15.82
2022-10-19T03:54:14.685Z,14.68
2022-10-19T03:57:22.226Z,17.15
2022-10-19T04:00:26.947Z,14.77
2022-10-19T04:03:31.996Z,15.52
2022-10-19T04:06:40.266Z,16.38
2022-10-19T04:09:45.211Z,19.75
2022-10-19T04:12:53.786Z,13.90
2022-10-19T04:15:59.510Z,14.63
2022-10-19T04:19:04.950Z,17.55
2022-10-19T04:22:10.075Z,15.32
2022-10-19T04:25:14.787Z,15.98
2022-10-19T04:28:19.714Z,18.27
2022-10-19T04:31:24.723Z,14.07
2022-10-19T04:34:29.468Z,15.23
2022-10-19T04:37:35.090Z,16.88
2022-10-19T04:40:40.208Z,18.02
2022-10-19T04:43:45.378Z,19.20
2022-10-19T04:46:50.301Z,19.17
2022-10-19T04:49:55.270Z,14.30
2022-10-19T04:53:00.188Z,14.75
2022-10-19T04:56:08.349Z,17.13
2022-10-19T04:59:13.371Z,19.38
2022-10-19T05:02:18.521Z,18.58
2022-10-19T05:05:24.382Z,16.67
2022-10-19T05:08:32.322Z,17.65
2022-10-19T05:11:37.301Z,21.40
2022-10-19T05:14:43.028Z,19.83
2022-10-19T05:17:48.082Z,18.35
2022-10-19T05:21:13.485Z,19.38
2022-10-19T05:24:18.634Z,17.55
2022-10-19T05:27:23.878Z,23.10
2022-10-19T05:30:30.562Z,21.60
2022-10-19T05:33:36.221Z,18.25
2022-10-19T05:36:41.420Z,19.83
2022-10-19T05:39:46.478Z,19.73
2022-10-19T05:42:51.456Z,20.27
2022-10-19T05:45:56.534Z,23.02
2022-10-19T05:49:01.805Z,20.90
2022-10-19T05:52:07.079Z,20.05
2022-10-19T05:55:12.331Z,26.30
2022-10-19T05:58:17.392Z,27.83
2022-10-19T06:01:22.679Z,22.77
2022-10-19T06:04:27.541Z,22.02
2022-10-19T06:07:35.644Z,20.42
2022-10-19T06:10:40.713Z,28.02
2022-10-19T06:13:47.536Z,25.83
2022-10-19T06:16:54.632Z,21.10
2022-10-19T06:19:59.978Z,21.50
2022-10-19T06:23:05.885Z,21.17
2022-10-19T06:26:13.949Z,24.00
2022-10-19T06:29:21.753Z,21.13
2022-10-19T06:32:28.587Z,26.65
2022-10-19T06:35:34.083Z,22.63
2022-10-19T06:38:43.733Z,24.73
2022-10-19T06:41:48.998Z,22.48
2022-10-19T06:44:57.041Z,27.67
2022-10-19T06:48:05.013Z,23.95
2022-10-19T06:51:13.665Z,23.05
2022-10-19T06:54:18.724Z,24.52
2022-10-19T06:57:24.196Z,18.75
2022-10-19T07:00:30.128Z,21.92
2022-10-19T07:03:36.625Z,28.67
2022-10-19T07:06:41.946Z,19.73
2022-10-19T07:09:48.635Z,18.20
2022-10-19T07:12:53.420Z,19.80
2022-10-19T07:16:03.518Z,19.88
2022-10-19T07:19:08.329Z,18.63
2022-10-19T07:22:17.351Z,15.82
2022-10-19T07:25:25.385Z,16.13
2022-10-19T07:28:30.931Z,17.15
2022-10-19T07:31:35.808Z,15.68
2022-10-19T07:34:40.847Z,19.85
2022-10-19T07:37:45.892Z,14.00
2022-10-19T07:40:51.296Z,15.15
2022-10-19T07:43:58.001Z,17.23
2022-10-19T07:47:04.795Z,19.33
2022-10-19T07:50:12.547Z,13.68
2022-10-19T07:53:17.600Z,11.38
2022-10-19T07:56:24.946Z,14.40
2022-10-19T07:59:30.041Z,11.98
2022-10-19T08:02:45.854Z,9.32
2022-10-19T08:06:13.563Z,11.90
2022-10-19T08:09:47.290Z,13.38
2022-10-19T08:12:44.612Z,11.23
2022-10-19T08:15:49.791Z,11.52
2022-10-19T08:19:01.400Z,11.95
2022-10-19T08:22:06.332Z,10.75
2022-10-19T08:25:11.179Z,8.32
2022-10-19T08:28:16.098Z,12.57
2022-10-19T08:31:23.599Z,8.43
2022-10-19T08:34:28.280Z,11.80
2022-10-19T08:37:44.213Z,13.75
2022-10-19T08:40:50.245Z,10.55
2022-10-19T08:44:24.099Z,8.85
2022-10-19T08:47:55.699Z,10.02
2022-10-19T08:51:01.416Z,11.18
2022-10-19T08:54:12.175Z,14.68
2022-10-19T08:57:43.832Z,12.90
2022-10-19T09:01:18.904Z,11.38
2022-10-19T09:04:50.886Z,15.10
2022-10-19T09:07:56.100Z,12.63
2022-10-19T09:11:00.974Z,16.20
2022-10-19T09:14:28.363Z,11.48
2022-10-19T09:17:33.753Z,20.50
2022-10-19T09:20:41.741Z,15.38
2022-10-19T09:24:16.354Z,14.60
2022-10-19T09:27:29.585Z,14.02
2022-10-19T09:30:35.538Z,14.00
2022-10-19T09:33:42.187Z,12.88
2022-10-19T09:36:53.119Z,12.68
2022-10-19T09:39:57.790Z,12.10
2022-10-19T09:43:19.474Z,14.13
2022-10-19T09:46:52.181Z,10.38
2022-10-19T09:50:15.646Z,16.80
2022-10-19T09:53:21.154Z,13.73
2022-10-19T09:56:28.191Z,15.18
2022-10-19T09:59:37.216Z,26.33
2022-10-19T10:02:50.424Z,18.15
2022-10-19T10:06:06.768Z,11.95
2022-10-19T10:09:26.152Z,14.50
2022-10-19T10:12:31.099Z,12.10
2022-10-19T10:15:43.854Z,10.88
2022-10-19T10:19:08.133Z,16.73
2022-10-19T10:22:29.506Z,23.20
2022-10-19T10:25:36.644Z,11.57
2022-10-19T10:28:49.091Z,12.85
2022-10-19T10:32:20.971Z,11.23
2022-10-19T10:35:36.346Z,12.38
2022-10-19T10:38:46.204Z,17.40
2022-10-19T10:41:51.254Z,12.20
2022-10-19T10:44:56.762Z,10.77
2022-10-19T10:48:26.114Z,14.02
2022-10-19T10:51:37.395Z,11.95
2022-10-19T10:55:01.738Z,10.30
2022-10-19T10:58:34.802Z,6.45
2022-10-19T11:02:10.926Z,12.00
2022-10-19T11:05:38.730Z,6.50
2022-10-19T11:09:09.459Z,8.35
2022-10-19T11:12:16.530Z,7.88
2022-10-19T11:15:47.290Z,6.70
2022-10-19T11:19:00.511Z,7.22
2022-10-19T11:22:44.879Z,12.82
2022-10-19T11:25:56.966Z,32.00
2022-10-19T11:29:47.719Z,30.67
2022-10-19T11:33:11.242Z,18.00
2022-10-19T11:36:45.588Z,9.02
2022-10-19T11:40:21.191Z,10.52
2022-10-19T11:43:54.874Z,8.43
2022-10-19T11:47:34.438Z,8.25
2022-10-19T11:51:04.119Z,4.28
2022-10-19T11:55:06.422Z,5.78
2022-10-19T11:59:15.278Z,5.95
2022-10-19T12:03:04.109Z,10.73
2022-10-19T12:06:38.125Z,9.43
2022-10-19T12:10:10.618Z,9.73
2022-10-19T12:13:21.713Z,7.82
2022-10-19T12:16:49.977Z,12.57
2022-10-19T12:19:58.911Z,9.43
2022-10-19T12:23:21.418Z,11.32
2022-10-19T12:26:29.190Z,8.02
2022-10-19T12:29:37.899Z,4.93
2022-10-19T12:33:12.638Z,6.03
2022-10-19T12:36:46.688Z,10.43
2022-10-19T12:40:13.365Z,8.48
2022-10-19T12:43:58.853Z,6.45
2022-10-19T12:47:19.577Z,6.00
2022-10-19T12:50:49.462Z,3.75
2022-10-19T12:54:08.423Z,7.50
2022-10-19T12:57:40.156Z,7.45
2022-10-19T13:01:02.176Z,7.00
2022-10-19T13:04:21.075Z,8.23
2022-10-19T13:07:27.477Z,5.07
2022-10-19T13:10:33.826Z,4.10
2022-10-19T13:13:59.052Z,5.18
2022-10-19T13:17:04.458Z,5.07
2022-10-19T13:20:15.585Z,8.48
2022-10-19T13:23:26.482Z,6.38
2022-10-19T13:26:35.529Z,7.05
2022-10-19T13:29:42.774Z,3.85
2022-10-19T13:32:47.864Z,9.68
2022-10-19T13:35:58.570Z,6.47
2022-10-19T13:39:07.910Z,4.00
2022-10-19T13:42:39.000Z,5.40
2022-10-19T13:45:44.774Z,6.43
2022-10-19T13:49:04.846Z,2.88
2022-10-19T13:52:25.157Z,7.35
2022-10-19T13:56:08.897Z,8.88
2022-10-19T13:59:32.441Z,18.23
2022-10-19T14:03:06.602Z,13.90
2022-10-19T14:06:23.415Z,31.13
2022-10-19T14:10:13.438Z,18.38
2022-10-19T14:13:22.232Z,32.38
2022-10-19T14:16:27.590Z,29.63
2022-10-19T14:19:44.820Z,17.40
2022-10-19T14:22:49.858Z,9.48
2022-10-19T14:26:22.350Z,15.20
2022-10-19T14:29:27.763Z,14.30
2022-10-19T14:32:34.366Z,13.23
2022-10-19T14:35:41.942Z,20.77
2022-10-19T14:38:49.974Z,13.45
2022-10-19T14:41:55.762Z,9.30
2022-10-19T14:45:01.615Z,13.85
2022-10-19T14:48:15.424Z,13.00
2022-10-19T14:51:33.140Z,6.38
2022-10-19T14:54:42.632Z,15.07
2022-10-19T14:57:50.732Z,11.18
2022-10-19T15:00:55.725Z,5.03
2022-10-19T15:04:00.606Z,9.57
2022-10-19T15:07:17.027Z,18.15
2022-10-19T15:10:29.449Z,11.43
2022-10-19T15:13:41.747Z,12.10
2022-10-19T15:16:55.701Z,11.88
2022-10-19T15:20:01.433Z,15.02
2022-10-19T15:23:39.990Z,19.98
2022-10-19T15:26:57.889Z,8.18
2022-10-19T15:30:17.843Z,7.40
2022-10-19T15:33:22.784Z,11.70
2022-10-19T15:36:30.466Z,10.98
2022-10-19T15:39:41.160Z,11.02
2022-10-19T15:42:48.957Z,10.23
2022-10-19T15:47:15.799Z,6.22
2022-10-19T15:50:45.874Z,9.80
2022-10-19T15:54:00.241Z,12.48
2022-10-19T15:57:28.366Z,11.35
2022-10-19T16:00:33.784Z,11.45
2022-10-19T16:03:38.958Z,10.70
2022-10-19T16:06:45.407Z,14.32
2022-10-19T16:09:50.380Z,12.95
2022-10-19T16:12:55.396Z,16.00
2022-10-19T16:16:11.178Z,10.68
2022-10-19T16:19:16.534Z,14.10
2022-10-19T16:22:21.321Z,10.23
2022-10-19T16:25:26.304Z,13.85
2022-10-19T16:28:31.394Z,10.18
2022-10-19T16:31:37.986Z,12.55
2022-10-19T16:34:43.180Z,16.10
2022-10-19T16:37:48.407Z,12.48
2022-10-19T16:40:53.839Z,13.30
2022-10-19T16:43:58.990Z,17.15
2022-10-19T16:47:06.074Z,24.85
2022-10-19T16:50:11.916Z,21.65
2022-10-19T16:53:17.203Z,25.23
2022-10-19T16:56:22.848Z,24.88
2022-10-19T16:59:27.920Z,26.20
2022-10-19T17:02:33.187Z,26.13
2022-10-19T17:05:39.186Z,27.15
2022-10-19T17:09:20.185Z,27.05
2022-10-19T17:12:10.188Z,13.65
2022-10-19T17:15:41.328Z,24.30
2022-10-19T17:18:40.151Z,27.48
2022-10-19T17:21:45.190Z,22.45
2022-10-19T17:24:49.898Z,18.20
2022-10-19T17:27:54.869Z,17.48
2022-10-19T17:31:09.162Z,25.02
2022-10-19T17:34:14.865Z,16.70
2022-10-19T17:37:20.281Z,16.75
2022-10-19T17:40:25.377Z,19.08
2022-10-19T17:43:30.815Z,16.02
2022-10-19T17:46:36.010Z,13.80
2022-10-19T17:49:41.399Z,20.17
2022-10-19T17:52:46.834Z,16.10
2022-10-19T17:55:52.664Z,15.43
2022-10-19T17:58:58.840Z,17.52
2022-10-19T18:02:06.368Z,13.77
2022-10-19T18:05:11.456Z,11.23
2022-10-19T18:08:16.636Z,11.77
2022-10-19T18:11:28.852Z,11.63
2022-10-19T18:14:33.873Z,12.85
2022-10-19T18:17:39.494Z,12.18
2022-10-19T18:20:46.299Z,12.13
2022-10-19T18:23:53.718Z,12.90
2022-10-19T18:26:59.127Z,10.45
2022-10-19T18:30:04.961Z,11.40
2022-10-19T18:33:10.853Z,8.80
2022-10-19T18:36:16.330Z,7.97
2022-10-19T18:39:23.014Z,6.55
2022-10-19T18:42:29.169Z,10.93
2022-10-19T18:45:34.469Z,12.23
2022-10-19T18:48:40.397Z,8.38
2022-10-19T18:51:50.722Z,8.25
2022-10-19T18:54:59.659Z,7.63
2022-10-19T18:58:04.919Z,8.25
2022-10-19T19:01:16.073Z,10.70
2022-10-19T19:04:21.381Z,10.13
2022-10-19T19:07:26.912Z,11.98
2022-10-19T19:10:31.971Z,8.02
2022-10-19T19:13:38.097Z,12.05
2022-10-19T19:16:45.095Z,8.43
2022-10-19T19:19:50.677Z,16.20
2022-10-19T19:22:56.265Z,11.40
2022-10-19T19:26:03.183Z,10.27
2022-10-19T19:29:08.637Z,12.43
2022-10-19T19:32:13.810Z,12.70
2022-10-19T19:35:19.082Z,9.85
2022-10-19T19:38:24.026Z,19.90
2022-10-19T19:41:31.437Z,14.90
2022-10-19T19:44:36.523Z,15.35
2022-10-19T19:47:41.699Z,15.80
2022-10-19T19:50:47.626Z,13.32
2022-10-19T19:53:52.881Z,14.57
2022-10-19T19:56:58.027Z,18.10
2022-10-19T20:00:04.072Z,19.38
2022-10-19T20:03:16.603Z,16.63
2022-10-19T20:06:25.052Z,18.17
2022-10-19T20:09:31.278Z,18.98
2022-10-19T20:12:36.541Z,13.23
2022-10-19T20:15:41.532Z,14.63
2022-10-19T20:18:49.995Z,15.75
2022-10-19T20:21:56.758Z,22.52
2022-10-19T20:25:02.035Z,24.25
2022-10-19T20:28:07.587Z,14.88
2022-10-19T20:31:13.844Z,15.52
2022-10-19T20:34:21.896Z,17.88
2022-10-19T20:37:30.240Z,16.08
2022-10-19T20:40:37.911Z,18.33
2022-10-19T20:43:43.305Z,20.42
2022-10-19T20:46:50.386Z,22.00
2022-10-19T20:49:55.577Z,17.63
2022-10-19T20:53:01.005Z,19.02
2022-10-19T20:56:10.942Z,18.48
2022-10-19T20:59:19.772Z,21.85
2022-10-19T21:02:25.455Z,18.08
2022-10-19T21:05:30.872Z,22.73
2022-10-19T21:08:37.264Z,20.10
2022-10-19T21:11:43.907Z,20.63
2022-10-19T21:14:49.392Z,16.90
2022-10-19T21:17:54.014Z,20.10
2022-10-19T21:20:58.598Z,21.05
2022-10-19T21:24:11.750Z,20.50
2022-10-19T21:27:16.359Z,20.10
2022-10-19T21:30:21.253Z,18.30
2022-10-19T21:33:26.133Z,19.98
2022-10-19T21:36:30.722Z,21.85
2022-10-19T21:39:36.403Z,20.15
2022-10-19T21:42:40.986Z,19.17
2022-10-19T21:45:45.852Z,17.88
2022-10-19T21:48:51.458Z,18.77
2022-10-19T21:51:56.371Z,16.70
2022-10-19T21:55:01.450Z,19.33
2022-10-19T21:58:06.811Z,14.77
2022-10-19T22:01:11.933Z,16.58
2022-10-19T22:04:18.114Z,14.07
2022-10-19T22:07:22.963Z,15.18
2022-10-19T22:10:28.623Z,14.65
2022-10-19T22:13:35.557Z,14.52
2022-10-19T22:16:41.594Z,15.50
2022-10-19T22:19:46.714Z,13.27
2022-10-19T22:22:54.224Z,15.40
2022-10-19T22:26:00.228Z,14.38
2022-10-19T22:29:07.238Z,11.30
2022-10-19T22:32:12.227Z,14.95
2022-10-19T22:35:17.209Z,11.23
2022-10-19T22:38:22.573Z,16.13
2022-10-19T22:41:27.449Z,14.50
2022-10-19T22:44:32.522Z,12.35
2022-10-19T22:47:37.833Z,14.52
2022-10-19T22:50:43.101Z,8.88
2022-10-19T22:53:48.316Z,10.73
2022-10-19T22:56:53.605Z,10.80
2022-10-19T22:59:58.088Z,12.23
2022-10-19T23:03:03.090Z,7.43
2022-10-19T23:06:12.872Z,11.75
2022-10-19T23:09:17.634Z,11.68
2022-10-19T23:12:22.742Z,9.43
2022-10-19T23:15:27.782Z,6.93
2022-10-19T23:18:34.892Z,6.97
2022-10-19T23:21:40.145Z,10.95
2022-10-19T23:24:44.923Z,7.45
2022-10-19T23:27:49.630Z,4.93
2022-10-19T23:30:57.037Z,8.50
2022-10-19T23:34:01.878Z,6.68
2022-10-19T23:37:06.651Z,6.28
2022-10-19T23:40:12.123Z,4.63
2022-10-19T23:43:16.986Z,4.07
2022-10-19T23:46:22.000Z,5.75
2022-10-19T23:49:26.851Z,4.97
2022-10-19T23:52:31.340Z,9.32
2022-10-19T23:55:36.289Z,6.07
2022-10-19T23:58:41.349Z,5.93
